sensor_id;sensor_type;location;lat;lon;timestamp;P1;durP1;ratioP1;P2;durP2;ratioP2
64649;SDS011;51061;45.258;38.112;2022-08-21T00:01:24;63.08;;;11.45;;
64649;SDS011;51061;45.258;38.112;2022-08-21T00:03:52;45.47;;;9.93;;
64649;SDS011;51061;45.258;38.112;2022-08-21T00:06:18;53.58;;;9.52;;
64649;SDS011;51061;45.258;38.112;2022-08-21T00:08:44;40.75;;;10.25;;
64649;SDS011;51061;45.258;38.112;2022-08-21T00:11:10;55.10;;;8.18;;
64649;SDS011;51061;45.258;38.112;2022-08-21T00:13:39;37.10;;;7.72;;
64649;SDS011;51061;45.258;38.112;2022-08-21T00:16:06;52.58;;;9.13;;
64649;SDS011;51061;45.258;38.112;2022-08-21T00:18:32;38.50;;;8.27;;
64649;SDS011;51061;45.258;38.112;2022-08-21T00:20:58;44.95;;;9.18;;
64649;SDS011;51061;45.258;38.112;2022-08-21T00:23:24;50.40;;;8.45;;
64649;SDS011;51061;45.258;38.112;2022-08-21T00:25:50;37.75;;;7.72;;
64649;SDS011;51061;45.258;38.112;2022-08-21T00:28:16;38.42;;;8.00;;
64649;SDS011;51061;45.258;38.112;2022-08-21T00:30:43;47.05;;;8.43;;
64649;SDS011;51061;45.258;38.112;2022-08-21T00:33:10;45.45;;;8.18;;
64649;SDS011;51061;45.258;38.112;2022-08-21T00:35:38;43.50;;;9.50;;
64649;SDS011;51061;45.258;38.112;2022-08-21T00:38:07;45.22;;;9.13;;
64649;SDS011;51061;45.258;38.112;2022-08-21T00:40:37;38.78;;;8.45;;
64649;SDS011;51061;45.258;38.112;2022-08-21T00:43:08;51.72;;;8.85;;
64649;SDS011;51061;45.258;38.112;2022-08-21T00:45:35;53.78;;;9.80;;
64649;SDS011;51061;45.258;38.112;2022-08-21T00:48:02;53.03;;;8.48;;
64649;SDS011;51061;45.258;38.112;2022-08-21T00:50:29;48.35;;;9.05;;
64649;SDS011;51061;45.258;38.112;2022-08-21T00:52:59;45.50;;;8.35;;
64649;SDS011;51061;45.258;38.112;2022-08-21T00:55:26;52.30;;;8.75;;
64649;SDS011;51061;45.258;38.112;2022-08-21T00:57:55;48.13;;;9.32;;
64649;SDS011;51061;45.258;38.112;2022-08-21T01:00:25;51.50;;;9.27;;
64649;SDS011;51061;45.258;38.112;2022-08-21T01:02:57;43.50;;;8.55;;
64649;SDS011;51061;45.258;38.112;2022-08-21T01:05:24;51.97;;;8.27;;
64649;SDS011;51061;45.258;38.112;2022-08-21T01:07:50;47.28;;;8.77;;
64649;SDS011;51061;45.258;38.112;2022-08-21T01:10:17;39.92;;;8.45;;
64649;SDS011;51061;45.258;38.112;2022-08-21T01:12:43;53.70;;;8.55;;
64649;SDS011;51061;45.258;38.112;2022-08-21T01:15:10;44.10;;;8.50;;
64649;SDS011;51061;45.258;38.112;2022-08-21T01:17:38;49.80;;;8.50;;
64649;SDS011;51061;45.258;38.112;2022-08-21T01:20:05;42.47;;;8.90;;
64649;SDS011;51061;45.258;38.112;2022-08-21T01:22:33;48.50;;;10.23;;
64649;SDS011;51061;45.258;38.112;2022-08-21T01:25:00;41.83;;;8.45;;
64649;SDS011;51061;45.258;38.112;2022-08-21T01:27:26;52.13;;;9.27;;
64649;SDS011;51061;45.258;38.112;2022-08-21T01:29:57;52.38;;;8.57;;
64649;SDS011;51061;45.258;38.112;2022-08-21T01:32:29;49.25;;;8.05;;
64649;SDS011;51061;45.258;38.112;2022-08-21T01:34:56;57.80;;;9.95;;
64649;SDS011;51061;45.258;38.112;2022-08-21T01:37:22;41.13;;;8.20;;
64649;SDS011;51061;45.258;38.112;2022-08-21T01:39:48;51.10;;;8.85;;
64649;SDS011;51061;45.258;38.112;2022-08-21T01:42:14;50.65;;;8.77;;
64649;SDS011;51061;45.258;38.112;2022-08-21T01:44:41;36.50;;;8.27;;
64649;SDS011;51061;45.258;38.112;2022-08-21T01:47:08;44.65;;;7.97;;
64649;SDS011;51061;45.258;38.112;2022-08-21T01:49:36;48.25;;;8.52;;
64649;SDS011;51061;45.258;38.112;2022-08-21T01:52:03;41.30;;;8.98;;
64649;SDS011;51061;45.258;38.112;2022-08-21T01:54:33;44.28;;;8.50;;
64649;SDS011;51061;45.258;38.112;2022-08-21T01:57:00;52.15;;;8.65;;
64649;SDS011;51061;45.258;38.112;2022-08-21T01:59:26;51.15;;;8.73;;
64649;SDS011;51061;45.258;38.112;2022-08-21T02:01:53;49.90;;;8.70;;
64649;SDS011;51061;45.258;38.112;2022-08-21T02:04:22;51.70;;;8.75;;
64649;SDS011;51061;45.258;38.112;2022-08-21T02:06:48;48.13;;;11.60;;
64649;SDS011;51061;45.258;38.112;2022-08-21T02:09:15;63.90;;;10.25;;
64649;SDS011;51061;45.258;38.112;2022-08-21T02:11:41;49.20;;;8.30;;
64649;SDS011;51061;45.258;38.112;2022-08-21T02:14:08;48.15;;;8.52;;
64649;SDS011;51061;45.258;38.112;2022-08-21T02:16:37;52.90;;;9.65;;
64649;SDS011;51061;45.258;38.112;2022-08-21T02:19:04;41.80;;;8.63;;
64649;SDS011;51061;45.258;38.112;2022-08-21T02:21:30;50.80;;;9.75;;
64649;SDS011;51061;45.258;38.112;2022-08-21T02:23:56;56.97;;;8.57;;
64649;SDS011;51061;45.258;38.112;2022-08-21T02:26:23;51.90;;;8.45;;
64649;SDS011;51061;45.258;38.112;2022-08-21T02:28:49;58.05;;;9.65;;
64649;SDS011;51061;45.258;38.112;2022-08-21T02:31:15;44.75;;;9.80;;
64649;SDS011;51061;45.258;38.112;2022-08-21T02:33:41;55.65;;;8.70;;
64649;SDS011;51061;45.258;38.112;2022-08-21T02:36:08;47.47;;;10.38;;
64649;SDS011;51061;45.258;38.112;2022-08-21T02:38:35;50.67;;;9.05;;
64649;SDS011;51061;45.258;38.112;2022-08-21T02:41:08;47.35;;;8.98;;
64649;SDS011;51061;45.258;38.112;2022-08-21T02:43:36;50.95;;;9.10;;
64649;SDS011;51061;45.258;38.112;2022-08-21T02:46:03;61.17;;;9.93;;
64649;SDS011;51061;45.258;38.112;2022-08-21T02:48:31;50.13;;;9.13;;
64649;SDS011;51061;45.258;38.112;2022-08-21T02:50:59;48.35;;;10.13;;
64649;SDS011;51061;45.258;38.112;2022-08-21T02:53:30;53.88;;;10.55;;
64649;SDS011;51061;45.258;38.112;2022-08-21T02:55:58;57.85;;;9.90;;
64649;SDS011;51061;45.258;38.112;2022-08-21T02:58:29;56.00;;;10.18;;
64649;SDS011;51061;45.258;38.112;2022-08-21T03:00:57;59.08;;;10.65;;
64649;SDS011;51061;45.258;38.112;2022-08-21T03:03:24;60.08;;;10.27;;
64649;SDS011;51061;45.258;38.112;2022-08-21T03:05:52;46.30;;;10.48;;
64649;SDS011;51061;45.258;38.112;2022-08-21T03:08:18;53.30;;;11.23;;
64649;SDS011;51061;45.258;38.112;2022-08-21T03:10:46;56.75;;;10.48;;
64649;SDS011;51061;45.258;38.112;2022-08-21T03:13:14;59.72;;;10.38;;
64649;SDS011;51061;45.258;38.112;2022-08-21T03:15:41;49.70;;;9.40;;
64649;SDS011;51061;45.258;38.112;2022-08-21T03:18:08;48.10;;;9.35;;
64649;SDS011;51061;45.258;38.112;2022-08-21T03:20:35;54.28;;;10.13;;
64649;SDS011;51061;45.258;38.112;2022-08-21T03:23:03;46.58;;;10.45;;
64649;SDS011;51061;45.258;38.112;2022-08-21T03:25:30;71.22;;;10.40;;
64649;SDS011;51061;45.258;38.112;2022-08-21T03:28:00;57.58;;;10.40;;
64649;SDS011;51061;45.258;38.112;2022-08-21T03:30:28;52.10;;;9.75;;
64649;SDS011;51061;45.258;38.112;2022-08-21T03:32:57;50.75;;;9.77;;
64649;SDS011;51061;45.258;38.112;2022-08-21T03:35:24;47.42;;;9.98;;
64649;SDS011;51061;45.258;38.112;2022-08-21T03:37:52;56.78;;;10.02;;
64649;SDS011;51061;45.258;38.112;2022-08-21T03:40:19;66.10;;;12.60;;
64649;SDS011;51061;45.258;38.112;2022-08-21T03:42:46;53.53;;;11.13;;
64649;SDS011;51061;45.258;38.112;2022-08-21T03:45:15;52.90;;;9.82;;
64649;SDS011;51061;45.258;38.112;2022-08-21T03:50:26;53.70;;;10.07;;
64649;SDS011;51061;45.258;38.112;2022-08-21T03:52:54;43.83;;;9.13;;
64649;SDS011;51061;45.258;38.112;2022-08-21T03:55:20;47.90;;;9.77;;
64649;SDS011;51061;45.258;38.112;2022-08-21T03:57:46;57.08;;;9.90;;
64649;SDS011;51061;45.258;38.112;2022-08-21T04:00:13;45.47;;;9.88;;
64649;SDS011;51061;45.258;38.112;2022-08-21T04:02:40;53.25;;;10.02;;
64649;SDS011;51061;45.258;38.112;2022-08-21T04:05:07;62.58;;;11.30;;
64649;SDS011;51061;45.258;38.112;2022-08-21T04:07:34;57.88;;;11.63;;
64649;SDS011;51061;45.258;38.112;2022-08-21T04:10:02;63.45;;;10.55;;
64649;SDS011;51061;45.258;38.112;2022-08-21T04:12:29;58.00;;;9.95;;
64649;SDS011;51061;45.258;38.112;2022-08-21T04:14:55;75.45;;;13.57;;
64649;SDS011;51061;45.258;38.112;2022-08-21T04:17:21;70.72;;;10.65;;
64649;SDS011;51061;45.258;38.112;2022-08-21T04:19:48;68.32;;;12.13;;
64649;SDS011;51061;45.258;38.112;2022-08-21T04:22:15;77.65;;;11.15;;
64649;SDS011;51061;45.258;38.112;2022-08-21T04:24:41;59.10;;;11.38;;
64649;SDS011;51061;45.258;38.112;2022-08-21T04:27:07;67.80;;;12.30;;
64649;SDS011;51061;45.258;38.112;2022-08-21T04:29:33;65.95;;;11.32;;
64649;SDS011;51061;45.258;38.112;2022-08-21T04:31:59;65.45;;;10.70;;
64649;SDS011;51061;45.258;38.112;2022-08-21T04:34:25;81.82;;;14.00;;
64649;SDS011;51061;45.258;38.112;2022-08-21T04:36:51;68.97;;;9.93;;
64649;SDS011;51061;45.258;38.112;2022-08-21T04:39:17;74.95;;;12.32;;
64649;SDS011;51061;45.258;38.112;2022-08-21T04:41:43;82.63;;;10.98;;
64649;SDS011;51061;45.258;38.112;2022-08-21T04:44:09;85.20;;;11.38;;
64649;SDS011;51061;45.258;38.112;2022-08-21T04:46:35;84.93;;;12.10;;
64649;SDS011;51061;45.258;38.112;2022-08-21T04:49:01;83.38;;;12.38;;
64649;SDS011;51061;45.258;38.112;2022-08-21T04:51:29;79.75;;;13.10;;
64649;SDS011;51061;45.258;38.112;2022-08-21T04:54:10;92.32;;;12.18;;
64649;SDS011;51061;45.258;38.112;2022-08-21T04:59:35;86.85;;;12.15;;
64649;SDS011;51061;45.258;38.112;2022-08-21T05:02:06;82.35;;;10.52;;
64649;SDS011;51061;45.258;38.112;2022-08-21T05:04:34;94.93;;;13.30;;
64649;SDS011;51061;45.258;38.112;2022-08-21T05:07:05;90.95;;;11.98;;
64649;SDS011;51061;45.258;38.112;2022-08-21T05:09:36;104.63;;;13.52;;
64649;SDS011;51061;45.258;38.112;2022-08-21T05:12:03;102.07;;;11.68;;
64649;SDS011;51061;45.258;38.112;2022-08-21T05:14:31;90.60;;;10.77;;
64649;SDS011;51061;45.258;38.112;2022-08-21T05:16:57;106.57;;;11.93;;
64649;SDS011;51061;45.258;38.112;2022-08-21T05:19:24;106.80;;;13.25;;
64649;SDS011;51061;45.258;38.112;2022-08-21T05:21:51;100.53;;;12.20;;
64649;SDS011;51061;45.258;38.112;2022-08-21T05:24:17;113.85;;;14.55;;
64649;SDS011;51061;45.258;38.112;2022-08-21T05:26:43;107.13;;;13.77;;
64649;SDS011;51061;45.258;38.112;2022-08-21T05:29:10;108.18;;;11.25;;
64649;SDS011;51061;45.258;38.112;2022-08-21T05:31:37;94.43;;;12.07;;
64649;SDS011;51061;45.258;38.112;2022-08-21T05:34:03;97.28;;;11.05;;
64649;SDS011;51061;45.258;38.112;2022-08-21T05:36:29;111.03;;;12.35;;
64649;SDS011;51061;45.258;38.112;2022-08-21T05:38:55;78.38;;;10.85;;
64649;SDS011;51061;45.258;38.112;2022-08-21T05:41:22;92.97;;;12.07;;
64649;SDS011;51061;45.258;38.112;2022-08-21T05:43:48;89.95;;;10.73;;
64649;SDS011;51061;45.258;38.112;2022-08-21T05:46:14;103.55;;;12.05;;
64649;SDS011;51061;45.258;38.112;2022-08-21T05:48:40;103.95;;;10.57;;
64649;SDS011;51061;45.258;38.112;2022-08-21T05:51:09;101.93;;;12.13;;
64649;SDS011;51061;45.258;38.112;2022-08-21T05:53:38;93.63;;;11.10;;
64649;SDS011;51061;45.258;38.112;2022-08-21T05:56:04;95.35;;;11.40;;
64649;SDS011;51061;45.258;38.112;2022-08-21T05:58:32;111.65;;;12.50;;
64649;SDS011;51061;45.258;38.112;2022-08-21T06:00:59;105.25;;;11.07;;
64649;SDS011;51061;45.258;38.112;2022-08-21T06:03:30;109.80;;;11.68;;
64649;SDS011;51061;45.258;38.112;2022-08-21T06:06:01;99.07;;;11.35;;
64649;SDS011;51061;45.258;38.112;2022-08-21T06:08:28;91.95;;;10.88;;
64649;SDS011;51061;45.258;38.112;2022-08-21T06:10:55;87.53;;;9.85;;
64649;SDS011;51061;45.258;38.112;2022-08-21T06:13:23;92.93;;;11.93;;
64649;SDS011;51061;45.258;38.112;2022-08-21T06:16:00;101.07;;;9.85;;
64649;SDS011;51061;45.258;38.112;2022-08-21T06:18:27;83.35;;;9.23;;
64649;SDS011;51061;45.258;38.112;2022-08-21T06:20:53;92.82;;;11.35;;
64649;SDS011;51061;45.258;38.112;2022-08-21T06:23:19;102.63;;;13.00;;
64649;SDS011;51061;45.258;38.112;2022-08-21T06:25:45;89.57;;;10.63;;
64649;SDS011;51061;45.258;38.112;2022-08-21T06:28:12;85.00;;;10.52;;
64649;SDS011;51061;45.258;38.112;2022-08-21T06:30:38;88.93;;;11.02;;
64649;SDS011;51061;45.258;38.112;2022-08-21T06:33:05;99.10;;;11.60;;
64649;SDS011;51061;45.258;38.112;2022-08-21T06:35:32;88.40;;;12.90;;
64649;SDS011;51061;45.258;38.112;2022-08-21T06:37:59;84.75;;;11.43;;
64649;SDS011;51061;45.258;38.112;2022-08-21T06:40:26;75.40;;;10.32;;
64649;SDS011;51061;45.258;38.112;2022-08-21T06:42:53;90.45;;;11.57;;
64649;SDS011;51061;45.258;38.112;2022-08-21T06:45:20;93.35;;;12.57;;
64649;SDS011;51061;45.258;38.112;2022-08-21T06:47:47;87.75;;;9.38;;
64649;SDS011;51061;45.258;38.112;2022-08-21T06:50:16;87.25;;;11.32;;
64649;SDS011;51061;45.258;38.112;2022-08-21T06:52:42;97.30;;;11.60;;
64649;SDS011;51061;45.258;38.112;2022-08-21T06:55:08;83.82;;;12.23;;
64649;SDS011;51061;45.258;38.112;2022-08-21T06:57:37;84.50;;;10.75;;
64649;SDS011;51061;45.258;38.112;2022-08-21T07:00:04;84.80;;;11.02;;
64649;SDS011;51061;45.258;38.112;2022-08-21T07:02:32;74.40;;;10.43;;
64649;SDS011;51061;45.258;38.112;2022-08-21T07:05:01;79.20;;;10.60;;
64649;SDS011;51061;45.258;38.112;2022-08-21T07:07:27;71.18;;;9.80;;
64649;SDS011;51061;45.258;38.112;2022-08-21T07:09:53;79.43;;;11.20;;
64649;SDS011;51061;45.258;38.112;2022-08-21T07:12:19;95.40;;;12.70;;
64649;SDS011;51061;45.258;38.112;2022-08-21T07:14:45;93.10;;;13.18;;
64649;SDS011;51061;45.258;38.112;2022-08-21T07:17:11;73.68;;;11.10;;
64649;SDS011;51061;45.258;38.112;2022-08-21T07:19:37;79.15;;;10.07;;
64649;SDS011;51061;45.258;38.112;2022-08-21T07:22:04;65.05;;;11.77;;
64649;SDS011;51061;45.258;38.112;2022-08-21T07:24:30;83.50;;;10.48;;
64649;SDS011;51061;45.258;38.112;2022-08-21T07:26:56;84.13;;;9.65;;
64649;SDS011;51061;45.258;38.112;2022-08-21T07:29:25;92.15;;;9.88;;
64649;SDS011;51061;45.258;38.112;2022-08-21T07:31:51;83.55;;;11.85;;
64649;SDS011;51061;45.258;38.112;2022-08-21T07:34:17;78.68;;;9.43;;
64649;SDS011;51061;45.258;38.112;2022-08-21T07:36:43;62.72;;;9.27;;
64649;SDS011;51061;45.258;38.112;2022-08-21T07:39:09;78.35;;;10.30;;
64649;SDS011;51061;45.258;38.112;2022-08-21T07:41:35;61.45;;;9.40;;
64649;SDS011;51061;45.258;38.112;2022-08-21T07:44:02;59.95;;;8.65;;
64649;SDS011;51061;45.258;38.112;2022-08-21T07:46:29;73.90;;;10.05;;
64649;SDS011;51061;45.258;38.112;2022-08-21T07:48:55;69.22;;;8.85;;
64649;SDS011;51061;45.258;38.112;2022-08-21T07:51:23;69.05;;;8.93;;
64649;SDS011;51061;45.258;38.112;2022-08-21T07:53:52;77.45;;;10.20;;
64649;SDS011;51061;45.258;38.112;2022-08-21T07:56:20;77.05;;;10.65;;
64649;SDS011;51061;45.258;38.112;2022-08-21T07:58:47;68.80;;;12.55;;
64649;SDS011;51061;45.258;38.112;2022-08-21T08:01:14;80.53;;;9.20;;
64649;SDS011;51061;45.258;38.112;2022-08-21T08:03:40;70.43;;;9.23;;
64649;SDS011;51061;45.258;38.112;2022-08-21T08:06:06;65.75;;;9.27;;
64649;SDS011;51061;45.258;38.112;2022-08-21T08:08:38;69.22;;;9.20;;
64649;SDS011;51061;45.258;38.112;2022-08-21T08:11:06;71.55;;;7.57;;
64649;SDS011;51061;45.258;38.112;2022-08-21T08:13:53;85.45;;;10.95;;
64649;SDS011;51061;45.258;38.112;2022-08-21T08:18:47;68.60;;;8.40;;
64649;SDS011;51061;45.258;38.112;2022-08-21T08:21:14;74.57;;;7.53;;
64649;SDS011;51061;45.258;38.112;2022-08-21T08:23:40;81.88;;;10.38;;
64649;SDS011;51061;45.258;38.112;2022-08-21T08:26:06;76.15;;;9.07;;
64649;SDS011;51061;45.258;38.112;2022-08-21T08:28:33;71.15;;;8.88;;
64649;SDS011;51061;45.258;38.112;2022-08-21T08:30:59;76.20;;;9.30;;
64649;SDS011;51061;45.258;38.112;2022-08-21T08:33:26;65.82;;;8.77;;
64649;SDS011;51061;45.258;38.112;2022-08-21T08:35:53;59.92;;;7.68;;
64649;SDS011;51061;45.258;38.112;2022-08-21T08:38:20;69.88;;;9.60;;
64649;SDS011;51061;45.258;38.112;2022-08-21T08:43:28;70.88;;;8.45;;
64649;SDS011;51061;45.258;38.112;2022-08-21T08:45:56;61.25;;;8.35;;
64649;SDS011;51061;45.258;38.112;2022-08-21T08:51:04;65.82;;;8.98;;
64649;SDS011;51061;45.258;38.112;2022-08-21T08:53:43;71.30;;;7.97;;
64649;SDS011;51061;45.258;38.112;2022-08-21T08:56:14;66.88;;;7.00;;
64649;SDS011;51061;45.258;38.112;2022-08-21T08:58:40;73.97;;;9.15;;
64649;SDS011;51061;45.258;38.112;2022-08-21T09:01:12;66.13;;;8.55;;
64649;SDS011;51061;45.258;38.112;2022-08-21T09:03:43;55.60;;;7.70;;
64649;SDS011;51061;45.258;38.112;2022-08-21T09:12:09;55.38;;;8.52;;
64649;SDS011;51061;45.258;38.112;2022-08-21T09:23:04;69.78;;;7.93;;
64649;SDS011;51061;45.258;38.112;2022-08-21T09:25:43;69.22;;;8.95;;
64649;SDS011;51061;45.258;38.112;2022-08-21T09:28:18;67.22;;;8.63;;
64649;SDS011;51061;45.258;38.112;2022-08-21T09:30:44;59.58;;;7.28;;
64649;SDS011;51061;45.258;38.112;2022-08-21T09:33:11;85.97;;;12.90;;
64649;SDS011;51061;45.258;38.112;2022-08-21T09:35:52;56.42;;;8.55;;
64649;SDS011;51061;45.258;38.112;2022-08-21T09:38:27;55.47;;;6.82;;
64649;SDS011;51061;45.258;38.112;2022-08-21T09:41:01;58.10;;;7.18;;
64649;SDS011;51061;45.258;38.112;2022-08-21T09:43:36;54.47;;;7.68;;
64649;SDS011;51061;45.258;38.112;2022-08-21T09:46:04;54.08;;;8.00;;
64649;SDS011;51061;45.258;38.112;2022-08-21T09:48:40;58.53;;;7.78;;
64649;SDS011;51061;45.258;38.112;2022-08-21T09:51:10;56.65;;;7.55;;
64649;SDS011;51061;45.258;38.112;2022-08-21T09:53:39;72.03;;;9.93;;
64649;SDS011;51061;45.258;38.112;2022-08-21T10:01:52;58.08;;;8.00;;
64649;SDS011;51061;45.258;38.112;2022-08-21T10:04:20;60.28;;;8.02;;
64649;SDS011;51061;45.258;38.112;2022-08-21T10:06:48;61.60;;;8.52;;
64649;SDS011;51061;45.258;38.112;2022-08-21T10:09:16;52.25;;;8.30;;
64649;SDS011;51061;45.258;38.112;2022-08-21T10:11:49;63.85;;;7.82;;
64649;SDS011;51061;45.258;38.112;2022-08-21T10:17:07;53.60;;;7.10;;
64649;SDS011;51061;45.258;38.112;2022-08-21T10:20:22;42.25;;;6.40;;
64649;SDS011;51061;45.258;38.112;2022-08-21T10:28:25;49.95;;;6.40;;
64649;SDS011;51061;45.258;38.112;2022-08-21T10:31:09;58.20;;;7.63;;
64649;SDS011;51061;45.258;38.112;2022-08-21T10:36:56;45.58;;;6.78;;
64649;SDS011;51061;45.258;38.112;2022-08-21T10:39:31;54.08;;;7.85;;
64649;SDS011;51061;45.258;38.112;2022-08-21T10:53:05;50.90;;;7.22;;
64649;SDS011;51061;45.258;38.112;2022-08-21T10:58:30;57.15;;;7.90;;
64649;SDS011;51061;45.258;38.112;2022-08-21T11:01:09;60.88;;;8.63;;
64649;SDS011;51061;45.258;38.112;2022-08-21T11:03:41;57.88;;;7.53;;
64649;SDS011;51061;45.258;38.112;2022-08-21T11:08:45;50.67;;;6.88;;
64649;SDS011;51061;45.258;38.112;2022-08-21T11:11:18;60.53;;;8.30;;
64649;SDS011;51061;45.258;38.112;2022-08-21T11:13:52;44.95;;;7.03;;
64649;SDS011;51061;45.258;38.112;2022-08-21T11:21:56;41.63;;;6.32;;
64649;SDS011;51061;45.258;38.112;2022-08-21T11:24:31;44.95;;;6.78;;
64649;SDS011;51061;45.258;38.112;2022-08-21T11:30:06;46.65;;;6.82;;
64649;SDS011;51061;45.258;38.112;2022-08-21T11:32:56;47.08;;;6.57;;
64649;SDS011;51061;45.258;38.112;2022-08-21T11:36:15;46.53;;;6.53;;
64649;SDS011;51061;45.258;38.112;2022-08-21T11:39:02;40.00;;;8.23;;
64649;SDS011;51061;45.258;38.112;2022-08-21T11:41:43;52.00;;;7.07;;
64649;SDS011;51061;45.258;38.112;2022-08-21T11:47:23;42.13;;;5.82;;
64649;SDS011;51061;45.258;38.112;2022-08-21T11:50:15;50.15;;;6.60;;
64649;SDS011;51061;45.258;38.112;2022-08-21T11:52:48;38.65;;;5.95;;
64649;SDS011;51061;45.258;38.112;2022-08-21T11:55:47;49.60;;;7.80;;
64649;SDS011;51061;45.258;38.112;2022-08-21T11:58:24;45.33;;;6.45;;
64649;SDS011;51061;45.258;38.112;2022-08-21T12:01:06;35.45;;;5.70;;
64649;SDS011;51061;45.258;38.112;2022-08-21T12:03:43;43.92;;;6.40;;
64649;SDS011;51061;45.258;38.112;2022-08-21T12:06:32;49.28;;;6.22;;
64649;SDS011;51061;45.258;38.112;2022-08-21T12:09:08;50.50;;;6.63;;
64649;SDS011;51061;45.258;38.112;2022-08-21T12:11:50;36.28;;;6.13;;
64649;SDS011;51061;45.258;38.112;2022-08-21T12:14:34;52.28;;;7.57;;
64649;SDS011;51061;45.258;38.112;2022-08-21T12:17:17;52.40;;;6.70;;
64649;SDS011;51061;45.258;38.112;2022-08-21T12:19:56;52.85;;;6.57;;
64649;SDS011;51061;45.258;38.112;2022-08-21T12:22:38;48.75;;;6.70;;
64649;SDS011;51061;45.258;38.112;2022-08-21T12:25:07;50.50;;;6.35;;
64649;SDS011;51061;45.258;38.112;2022-08-21T12:28:01;44.55;;;5.82;;
64649;SDS011;51061;45.258;38.112;2022-08-21T12:30:37;46.63;;;5.65;;
64649;SDS011;51061;45.258;38.112;2022-08-21T12:33:06;45.85;;;5.22;;
64649;SDS011;51061;45.258;38.112;2022-08-21T12:35:46;51.22;;;6.47;;
64649;SDS011;51061;45.258;38.112;2022-08-21T12:38:17;54.13;;;6.93;;
64649;SDS011;51061;45.258;38.112;2022-08-21T12:44:10;55.05;;;6.30;;
64649;SDS011;51061;45.258;38.112;2022-08-21T12:49:26;47.63;;;7.05;;
64649;SDS011;51061;45.258;38.112;2022-08-21T12:54:50;36.63;;;6.32;;
64649;SDS011;51061;45.258;38.112;2022-08-21T12:57:17;53.53;;;7.80;;
64649;SDS011;51061;45.258;38.112;2022-08-21T12:59:52;36.22;;;5.13;;
64649;SDS011;51061;45.258;38.112;2022-08-21T13:02:24;51.28;;;6.78;;
64649;SDS011;51061;45.258;38.112;2022-08-21T13:04:55;55.95;;;6.07;;
64649;SDS011;51061;45.258;38.112;2022-08-21T13:07:25;54.80;;;5.65;;
64649;SDS011;51061;45.258;38.112;2022-08-21T13:09:56;52.15;;;6.72;;
64649;SDS011;51061;45.258;38.112;2022-08-21T13:12:40;48.88;;;5.43;;
64649;SDS011;51061;45.258;38.112;2022-08-21T13:15:07;42.88;;;5.88;;
64649;SDS011;51061;45.258;38.112;2022-08-21T13:17:35;45.97;;;6.90;;
64649;SDS011;51061;45.258;38.112;2022-08-21T13:20:19;48.88;;;5.93;;
64649;SDS011;51061;45.258;38.112;2022-08-21T13:22:48;50.37;;;7.90;;
64649;SDS011;51061;45.258;38.112;2022-08-21T13:25:17;43.78;;;7.45;;
64649;SDS011;51061;45.258;38.112;2022-08-21T13:30:38;45.92;;;7.65;;
64649;SDS011;51061;45.258;38.112;2022-08-21T13:33:08;57.35;;;9.15;;
64649;SDS011;51061;45.258;38.112;2022-08-21T13:35:44;41.55;;;6.32;;
64649;SDS011;51061;45.258;38.112;2022-08-21T13:38:13;49.78;;;5.95;;
64649;SDS011;51061;45.258;38.112;2022-08-21T13:41:42;43.60;;;5.22;;
64649;SDS011;51061;45.258;38.112;2022-08-21T13:43:48;51.30;;;6.40;;
64649;SDS011;51061;45.258;38.112;2022-08-21T13:46:16;55.90;;;7.72;;
64649;SDS011;51061;45.258;38.112;2022-08-21T13:48:45;46.38;;;6.90;;
64649;SDS011;51061;45.258;38.112;2022-08-21T13:51:11;53.15;;;6.38;;
64649;SDS011;51061;45.258;38.112;2022-08-21T13:56:20;50.83;;;5.82;;
64649;SDS011;51061;45.258;38.112;2022-08-21T13:58:58;57.08;;;7.57;;
64649;SDS011;51061;45.258;38.112;2022-08-21T14:01:31;45.03;;;6.07;;
64649;SDS011;51061;45.258;38.112;2022-08-21T14:04:14;50.45;;;8.77;;
64649;SDS011;51061;45.258;38.112;2022-08-21T14:06:45;55.47;;;8.15;;
64649;SDS011;51061;45.258;38.112;2022-08-21T14:09:34;50.70;;;6.30;;
64649;SDS011;51061;45.258;38.112;2022-08-21T14:12:13;47.92;;;5.65;;
64649;SDS011;51061;45.258;38.112;2022-08-21T14:14:42;48.38;;;6.30;;
64649;SDS011;51061;45.258;38.112;2022-08-21T14:17:11;43.33;;;6.00;;
64649;SDS011;51061;45.258;38.112;2022-08-21T14:19:40;41.17;;;5.38;;
64649;SDS011;51061;45.258;38.112;2022-08-21T14:27:52;51.17;;;6.30;;
64649;SDS011;51061;45.258;38.112;2022-08-21T14:30:30;57.17;;;7.10;;
64649;SDS011;51061;45.258;38.112;2022-08-21T14:32:59;37.88;;;6.05;;
64649;SDS011;51061;45.258;38.112;2022-08-21T14:35:26;51.47;;;6.97;;
64649;SDS011;51061;45.258;38.112;2022-08-21T14:37:52;48.13;;;6.70;;
64649;SDS011;51061;45.258;38.112;2022-08-21T14:40:20;50.97;;;6.18;;
64649;SDS011;51061;45.258;38.112;2022-08-21T14:42:48;49.40;;;7.82;;
64649;SDS011;51061;45.258;38.112;2022-08-21T14:45:16;45.33;;;6.18;;
64649;SDS011;51061;45.258;38.112;2022-08-21T14:47:45;54.50;;;6.95;;
64649;SDS011;51061;45.258;38.112;2022-08-21T14:50:11;50.47;;;7.05;;
64649;SDS011;51061;45.258;38.112;2022-08-21T14:52:39;59.78;;;7.15;;
64649;SDS011;51061;45.258;38.112;2022-08-21T14:55:07;60.20;;;6.57;;
64649;SDS011;51061;45.258;38.112;2022-08-21T14:57:36;53.78;;;6.10;;
64649;SDS011;51061;45.258;38.112;2022-08-21T15:00:03;44.28;;;6.55;;
64649;SDS011;51061;45.258;38.112;2022-08-21T15:02:31;43.83;;;5.18;;
64649;SDS011;51061;45.258;38.112;2022-08-21T15:04:57;37.97;;;5.47;;
64649;SDS011;51061;45.258;38.112;2022-08-21T15:07:23;48.20;;;6.53;;
64649;SDS011;51061;45.258;38.112;2022-08-21T15:09:49;43.00;;;7.53;;
64649;SDS011;51061;45.258;38.112;2022-08-21T15:12:15;52.63;;;5.32;;
64649;SDS011;51061;45.258;38.112;2022-08-21T15:14:41;49.10;;;7.30;;
64649;SDS011;51061;45.258;38.112;2022-08-21T15:17:08;67.28;;;10.70;;
64649;SDS011;51061;45.258;38.112;2022-08-21T15:19:36;89.45;;;19.80;;
64649;SDS011;51061;45.258;38.112;2022-08-21T15:22:02;52.10;;;9.20;;
64649;SDS011;51061;45.258;38.112;2022-08-21T15:24:29;62.60;;;7.70;;
64649;SDS011;51061;45.258;38.112;2022-08-21T15:26:55;56.35;;;6.90;;
64649;SDS011;51061;45.258;38.112;2022-08-21T15:29:24;53.38;;;9.35;;
64649;SDS011;51061;45.258;38.112;2022-08-21T15:31:56;41.53;;;9.00;;
64649;SDS011;51061;45.258;38.112;2022-08-21T15:34:26;60.65;;;8.15;;
64649;SDS011;51061;45.258;38.112;2022-08-21T15:36:54;42.15;;;8.50;;
64649;SDS011;51061;45.258;38.112;2022-08-21T15:39:20;42.67;;;6.65;;
64649;SDS011;51061;45.258;38.112;2022-08-21T15:41:46;55.58;;;8.55;;
64649;SDS011;51061;45.258;38.112;2022-08-21T15:44:13;51.20;;;6.50;;
64649;SDS011;51061;45.258;38.112;2022-08-21T15:46:40;45.17;;;6.88;;
64649;SDS011;51061;45.258;38.112;2022-08-21T15:49:07;56.25;;;6.45;;
64649;SDS011;51061;45.258;38.112;2022-08-21T15:51:33;53.88;;;6.25;;
64649;SDS011;51061;45.258;38.112;2022-08-21T15:54:00;49.42;;;6.93;;
64649;SDS011;51061;45.258;38.112;2022-08-21T15:56:28;50.80;;;7.00;;
64649;SDS011;51061;45.258;38.112;2022-08-21T15:59:01;60.85;;;7.45;;
64649;SDS011;51061;45.258;38.112;2022-08-21T16:01:37;46.65;;;7.85;;
64649;SDS011;51061;45.258;38.112;2022-08-21T16:04:04;54.40;;;7.75;;